KISM/ISM METAR and TAF weather

Enter ICAO airport designator
Station Type Date Time Source
KISM METAR 2020/01/26 03:56 UTC NOAA

KISM 260356Z AUTO 30009KT 10SM CLR 11/07 A3014 RMK AO2 SLP206 T01110067


Station Type Date Time Source
KISM Decoded METAR 2020/01/26 03:56 UTC NOAA

Orlando, Kissimmee Municipal Airport, FL, United States (KISM) 28-17-23N 081-26-14W
Jan 25, 2020 - 10:56 PM EST / 2020.01.26 0356 UTC
Wind: from the WNW (300 degrees) at 10 MPH (9 KT):0
Visibility: 10 mile(s):0
Sky conditions: clear
Temperature: 52.0 F (11.1 C)
Dew Point: 44.1 F (6.7 C)
Relative Humidity: 74%
Pressure (altimeter): 30.14 in. Hg (1020 hPa)
ob: KISM 260356Z AUTO 30009KT 10SM CLR 11/07 A3014 RMK AO2 SLP206 T01110067
cycle: 4

Station Type Date Time Source
KISM TAF 2020/01/25 18:22 UTC NOAA

TAF KISM 251720Z 2518/2618 33010KT P6SM SKC
FM252300 32005KT P6SM SKC
FM261400 35006KT P6SM FEW250

Example: see airport list